Time;durP1;ratioP1;P1;durP2;ratioP2;P2;SDS_P1;SDS_P2;PMS_P1;PMS_P2;Temp;Humidity;BMP_temperature;BMP_pressure;BME280_temperature;BME280_humidity;BME280_pressure;Samples;Min_cycle;Max_cycle;Signal;HPM_P1;HPM_P2
2022/10/16 00:00:33;;;;;;;;;;;;;;;22.98;46.38;94230.41;5065116;28;7267;-61
2022/10/16 00:03:02;;;;;;;;;;;;;;;22.97;46.56;94229.66;4979531;28;7238;-60
2022/10/16 00:05:28;;;;;;;;;;;;;;;22.97;46.46;94215.94;4990235;28;9479;-61
2022/10/16 00:07:53;;;;;;;;;;;;;;;22.97;46.46;94229.66;4980400;28;7758;-60
2022/10/16 00:10:19;;;;;;;;;;;;;;;22.96;46.33;94228.19;4974962;28;9459;-61
2022/10/16 00:12:48;;;;;;;;;;;;;;;22.97;46.28;94224.16;4978221;28;7040;-61
2022/10/16 00:15:26;;;;;;;;;;;;;;;22.96;46.22;94219.19;4990872;28;7276;-61
2022/10/16 00:17:52;;;;;;;;;;;;;;;22.93;46.40;94223.69;5009085;28;9385;-61
2022/10/16 00:20:18;;;;;;;;;;;;;;;22.92;46.70;94227.66;4972543;28;7197;-61
2022/10/16 00:22:48;;;;;;;;;;;;;;;22.94;46.63;94230.66;4988108;28;7398;-61
2022/10/16 00:25:17;;;;;;;;;;;;;;;22.95;46.67;94242.38;4982393;28;7472;-61
2022/10/16 00:27:59;;;;;;;;;;;;;;;22.95;46.40;94234.13;5019536;28;7250;-61
2022/10/16 00:30:27;;;;;;;;;;;;;;;22.94;46.72;94229.91;4983712;28;7266;-61
2022/10/16 00:32:56;;;;;;;;;;;;;;;22.96;46.30;94227.41;4974900;28;7009;-61
2022/10/16 00:35:26;;;;;;;;;;;;;;;22.96;46.63;94230.16;5000042;28;6998;-61
2022/10/16 00:38:09;;;;;;;;;;;;;;;22.95;46.40;94225.91;4972399;28;6992;-61
2022/10/16 00:40:37;;;;;;;;;;;;;;;22.93;46.44;94226.41;5039023;28;9600;-61
2022/10/16 00:43:32;;;;;;;;;;;;;;;22.93;46.02;94233.88;5065869;28;9689;-61
2022/10/16 00:46:17;;;;;;;;;;;;;;;22.92;46.73;94233.13;5073871;28;6970;-61
2022/10/16 00:48:50;;;;;;;;;;;;;;;22.93;46.37;94236.63;5048973;28;7052;-61
2022/10/16 00:51:53;;;;;;;;;;;;;;;22.93;46.54;94240.13;5057473;28;9116;-61
2022/10/16 00:54:35;;;;;;;;;;;;;;;22.91;46.30;94239.88;5012858;28;7008;-61
2022/10/16 00:57:11;;;;;;;;;;;;;;;22.92;46.36;94241.38;5029116;28;7069;-61
2022/10/16 00:59:41;;;;;;;;;;;;;;;22.93;46.41;94240.13;4985357;28;8758;-60
2022/10/16 01:02:15;;;;;;;;;;;;;;;22.92;46.68;94246.84;5002003;28;7225;-60
2022/10/16 01:04:48;;;;;;;;;;;;;;;22.93;46.49;94250.34;5014378;28;7616;-61
2022/10/16 01:07:37;;;;;;;;;;;;;;;22.93;46.19;94247.59;5004857;28;7281;-61
2022/10/16 01:10:16;;;;;;;;;;;;;;;22.92;46.55;94259.84;5028410;28;6981;-61
2022/10/16 01:13:18;;;;;;;;;;;;;;;22.89;46.60;94247.84;5019875;28;6910;-61
2022/10/16 01:16:07;;;;;;;;;;;;;;;22.92;46.42;94252.34;4980344;28;7267;-61
2022/10/16 01:18:43;;;;;;;;;;;;;;;22.90;46.90;94248.63;5007048;28;7322;-61
2022/10/16 01:21:23;;;;;;;;;;;;;;;22.90;46.61;94241.13;5007376;28;7131;-61
2022/10/16 01:24:28;;;;;;;;;;;;;;;22.90;46.68;94246.59;5009197;28;7045;-61
2022/10/16 01:27:33;;;;;;;;;;;;;;;22.90;46.43;94251.34;4998936;28;7291;-61
2022/10/16 01:30:05;;;;;;;;;;;;;;;22.90;46.66;94248.63;5018480;28;7283;-61
2022/10/16 01:33:21;;;;;;;;;;;;;;;22.90;46.63;94252.06;5063920;28;7460;-61
2022/10/16 01:36:02;;;;;;;;;;;;;;;22.91;46.44;94247.34;4976171;28;7010;-60
2022/10/16 01:38:35;;;;;;;;;;;;;;;22.89;46.42;94249.84;4982600;28;9155;-61
2022/10/16 01:41:15;;;;;;;;;;;;;;;22.89;46.53;94247.09;4973240;28;7342;-60
2022/10/16 01:44:20;;;;;;;;;;;;;;;22.89;46.62;94255.31;4975935;28;7294;-61
2022/10/16 01:46:53;;;;;;;;;;;;;;;22.89;46.72;94256.09;4948267;28;6996;-61
2022/10/16 01:49:43;;;;;;;;;;;;;;;22.90;46.62;94252.06;4954468;28;7025;-61
2022/10/16 01:52:23;;;;;;;;;;;;;;;22.89;46.40;94255.31;4950122;28;7465;-61
2022/10/16 01:54:53;;;;;;;;;;;;;;;22.89;46.78;94269.78;4951733;28;7228;-62
2022/10/16 01:57:31;;;;;;;;;;;;;;;22.87;46.44;94272.28;4963193;28;7368;-61
2022/10/16 02:00:12;;;;;;;;;;;;;;;22.88;46.81;94262.06;4971411;28;7307;-61
2022/10/16 02:02:43;;;;;;;;;;;;;;;22.88;46.48;94262.06;4948010;28;7412;-61
2022/10/16 02:05:18;;;;;;;;;;;;;;;22.88;46.91;94262.81;4953397;28;7129;-61
2022/10/16 02:07:44;;;;;;;;;;;;;;;22.87;46.62;94258.56;4951623;28;8959;-61
2022/10/16 02:10:10;;;;;;;;;;;;;;;22.90;46.19;94274.03;4966737;28;7813;-61
2022/10/16 02:13:07;;;;;;;;;;;;;;;22.89;46.37;94271.78;4990528;28;9088;-61
2022/10/16 02:15:36;;;;;;;;;;;;;;;22.87;46.22;94269.53;5033347;28;7352;-61
2022/10/16 02:18:33;;;;;;;;;;;;;;;22.87;46.36;94277.78;5024319;28;9068;-61
2022/10/16 02:21:38;;;;;;;;;;;;;;;22.87;46.32;94271.53;5041152;28;7450;-60
2022/10/16 02:24:18;;;;;;;;;;;;;;;22.86;46.38;94270.78;4993913;28;8328;-61
2022/10/16 02:27:17;;;;;;;;;;;;;;;22.86;46.39;94273.50;4975084;28;7276;-61
2022/10/16 02:29:50;;;;;;;;;;;;;;;22.85;46.53;94265.78;4967669;28;8328;-61
2022/10/16 02:32:51;;;;;;;;;;;;;;;22.86;46.68;94267.31;4981340;28;7227;-61
2022/10/16 02:35:33;;;;;;;;;;;;;;;22.86;46.72;94264.56;4978549;28;7292;-61
2022/10/16 02:38:00;;;;;;;;;;;;;;;22.86;46.50;94264.56;5004723;28;9069;-61
2022/10/16 02:40:33;;;;;;;;;;;;;;;22.85;46.63;94266.56;4989693;28;7608;-61
2022/10/16 02:43:16;;;;;;;;;;;;;;;22.86;46.67;94268.03;4996224;28;7445;-60
2022/10/16 02:45:50;;;;;;;;;;;;;;;22.86;46.20;94268.03;5009726;28;7047;-60
2022/10/16 02:48:25;;;;;;;;;;;;;;;22.86;46.58;94272.78;5001320;28;9068;-61
2022/10/16 02:51:01;;;;;;;;;;;;;;;22.85;46.73;94272.03;5002495;28;8452;-61
2022/10/16 02:53:28;;;;;;;;;;;;;;;22.85;46.81;94271.28;5019835;28;9458;-61
2022/10/16 02:55:54;;;;;;;;;;;;;;;22.82;46.57;94267.53;5001709;28;9107;-61
2022/10/16 02:58:22;;;;;;;;;;;;;;;22.84;46.69;94262.28;5013262;28;8369;-61
2022/10/16 03:01:01;;;;;;;;;;;;;;;22.84;46.42;94258.81;5008330;28;7278;-61
2022/10/16 03:03:27;;;;;;;;;;;;;;;22.83;46.06;94258.06;5008767;28;8611;-60
2022/10/16 03:05:53;;;;;;;;;;;;;;;22.83;46.51;94252.59;5010241;28;7727;-60
2022/10/16 03:08:28;;;;;;;;;;;;;;;22.83;46.51;94251.84;5028547;28;7119;-60
2022/10/16 03:10:57;;;;;;;;;;;;;;;22.81;46.37;94246.84;5037490;28;7109;-60
2022/10/16 03:13:25;;;;;;;;;;;;;;;22.83;46.22;94255.31;5051038;28;7235;-61
2022/10/16 03:15:53;;;;;;;;;;;;;;;22.82;46.64;94253.81;5043494;28;9367;-60
2022/10/16 03:18:21;;;;;;;;;;;;;;;22.81;46.37;94263.31;5059808;28;7081;-61
2022/10/16 03:20:49;;;;;;;;;;;;;;;22.77;46.80;94249.06;5058200;28;9062;-60
2022/10/16 03:23:28;;;;;;;;;;;;;;;22.78;46.74;94256.06;5068664;28;7149;-61
2022/10/16 03:26:01;;;;;;;;;;;;;;;22.80;46.48;94256.31;5054120;28;7033;-61
2022/10/16 03:28:30;;;;;;;;;;;;;;;22.81;46.46;94251.59;5085413;28;6970;-61
2022/10/16 03:30:55;;;;;;;;;;;;;;;22.80;46.70;94250.81;5060605;28;8993;-61
2022/10/16 03:33:23;;;;;;;;;;;;;;;22.81;46.70;94259.81;5058627;28;6965;-61
2022/10/16 03:36:22;;;;;;;;;;;;;;;22.81;46.52;94259.81;5070082;28;9390;-60
2022/10/16 03:38:57;;;;;;;;;;;;;;;22.81;46.66;94276.25;4988907;28;7415;-60
2022/10/16 03:41:26;;;;;;;;;;;;;;;22.81;46.32;94285.25;5013075;28;9107;-60
2022/10/16 03:43:54;;;;;;;;;;;;;;;22.81;46.52;94293.47;4990477;28;7282;-61
2022/10/16 03:46:19;;;;;;;;;;;;;;;22.78;46.46;94288.97;4986845;28;7119;-61
2022/10/16 03:48:48;;;;;;;;;;;;;;;22.81;46.03;94296.22;4994027;28;7049;-61
2022/10/16 03:51:46;;;;;;;;;;;;;;;22.80;46.44;94291.19;4993274;28;7279;-61
2022/10/16 03:54:22;;;;;;;;;;;;;;;22.81;46.41;94295.44;4954886;28;7077;-61
2022/10/16 03:56:54;;;;;;;;;;;;;;;22.77;46.56;94287.44;4945744;28;7296;-61
2022/10/16 03:59:31;;;;;;;;;;;;;;;22.80;46.44;94286.47;4987022;28;7211;-61
2022/10/16 04:01:57;;;;;;;;;;;;;;;22.80;46.55;94291.97;4954298;28;7609;-61
2022/10/16 04:04:23;;;;;;;;;;;;;;;22.79;46.04;94290.47;4975738;28;7362;-60
2022/10/16 04:06:51;;;;;;;;;;;;;;;22.77;46.45;94298.41;4965418;28;7173;-61
2022/10/16 04:09:18;;;;;;;;;;;;;;;22.79;46.62;94292.47;4944715;28;9190;-60
2022/10/16 04:11:53;;;;;;;;;;;;;;;22.77;46.37;94287.44;4951587;28;6989;-61
2022/10/16 04:14:28;;;;;;;;;;;;;;;22.77;46.91;94283.97;4955765;28;7249;-61
2022/10/16 04:17:03;;;;;;;;;;;;;;;22.76;46.98;94285.97;4970449;28;7597;-62
2022/10/16 04:19:46;;;;;;;;;;;;;;;22.78;46.60;94291.69;4954426;28;7156;-60
2022/10/16 04:22:14;;;;;;;;;;;;;;;22.77;46.89;94292.94;4986963;28;8383;-61
2022/10/16 04:24:44;;;;;;;;;;;;;;;22.75;46.85;94289.22;4947255;28;8245;-61
2022/10/16 04:27:13;;;;;;;;;;;;;;;22.76;46.70;94301.66;4943784;28;7217;-61
2022/10/16 04:29:52;;;;;;;;;;;;;;;22.77;46.52;94306.63;4998171;28;7225;-61
2022/10/16 04:32:18;;;;;;;;;;;;;;;22.76;46.88;94312.63;5043939;28;7325;-61
2022/10/16 04:34:44;;;;;;;;;;;;;;;22.76;46.91;94307.16;5086467;28;8515;-61
2022/10/16 04:37:29;;;;;;;;;;;;;;;22.74;46.58;94304.91;5071625;28;7394;-61
2022/10/16 04:40:00;;;;;;;;;;;;;;;22.74;46.55;94302.16;5055975;28;7270;-61
2022/10/16 04:42:29;;;;;;;;;;;;;;;22.75;46.56;94309.13;5058216;28;9125;-61
2022/10/16 04:45:06;;;;;;;;;;;;;;;22.75;46.21;94314.63;5071805;28;7364;-61
2022/10/16 04:47:49;;;;;;;;;;;;;;;22.76;46.58;94320.84;5069046;28;7254;-61
2022/10/16 04:50:20;;;;;;;;;;;;;;;22.74;46.62;94313.13;5072572;28;7272;-61
2022/10/16 04:52:54;;;;;;;;;;;;;;;22.74;46.82;94315.88;5074499;28;8426;-61
2022/10/16 04:55:21;;;;;;;;;;;;;;;22.75;46.06;94327.59;5055673;28;7311;-61
2022/10/16 04:57:49;;;;;;;;;;;;;;;22.75;46.67;94322.13;5064999;28;8489;-61
2022/10/16 05:00:17;;;;;;;;;;;;;;;22.72;46.77;94325.81;5071238;28;9819;-61
2022/10/16 05:02:43;;;;;;;;;;;;;;;22.75;47.05;94322.13;5089917;28;7537;-61
2022/10/16 05:05:09;;;;;;;;;;;;;;;22.73;46.54;94322.59;5062898;28;6935;-60
2022/10/16 05:07:37;;;;;;;;;;;;;;;22.73;46.77;94324.59;5074053;28;7270;-61
2022/10/16 05:10:14;;;;;;;;;;;;;;;22.74;46.49;94318.63;5069742;28;7227;-61
2022/10/16 05:12:40;;;;;;;;;;;;;;;22.72;46.78;94318.34;5073103;28;7244;-61
2022/10/16 05:15:06;;;;;;;;;;;;;;;22.73;46.44;94319.13;5054261;28;9141;-61
2022/10/16 05:17:35;;;;;;;;;;;;;;;22.72;46.91;94318.34;5059957;28;7632;-61
2022/10/16 05:20:03;;;;;;;;;;;;;;;22.72;46.81;94323.84;5050149;28;9071;-61
2022/10/16 05:22:31;;;;;;;;;;;;;;;22.71;46.97;94316.84;5067842;28;8991;-61
2022/10/16 05:25:05;;;;;;;;;;;;;;;22.69;46.67;94311.13;5054930;28;9015;-61
2022/10/16 05:28:01;;;;;;;;;;;;;;;22.72;46.49;94315.63;5062809;28;9476;-61
2022/10/16 05:30:31;;;;;;;;;;;;;;;22.72;46.48;94318.34;4994424;28;7661;-61
2022/10/16 05:33:07;;;;;;;;;;;;;;;22.71;46.85;94316.09;4994757;28;8613;-61
2022/10/16 05:35:35;;;;;;;;;;;;;;;22.72;46.68;94310.13;5001415;28;7285;-60
2022/10/16 05:38:10;;;;;;;;;;;;;;;22.71;46.68;94318.84;4994766;28;7033;-61
2022/10/16 05:40:39;;;;;;;;;;;;;;;22.70;46.08;94320.84;4995121;28;8949;-61
2022/10/16 05:43:05;;;;;;;;;;;;;;;22.72;46.64;94317.59;4993856;28;7253;-61
2022/10/16 05:45:35;;;;;;;;;;;;;;;22.70;46.76;94320.84;5007091;28;7176;-60
2022/10/16 05:48:11;;;;;;;;;;;;;;;22.71;46.45;94321.56;4991110;28;8977;-61
2022/10/16 05:50:47;;;;;;;;;;;;;;;22.68;46.53;94320.59;4993696;28;7178;-61
2022/10/16 05:53:15;;;;;;;;;;;;;;;22.69;46.53;94318.56;4991060;28;7569;-60
2022/10/16 05:55:42;;;;;;;;;;;;;;;22.68;46.78;94323.34;5011602;28;8718;-61
2022/10/16 05:58:11;;;;;;;;;;;;;;;22.70;46.49;94325.56;4989715;28;7348;-60
2022/10/16 06:00:39;;;;;;;;;;;;;;;22.68;46.68;94315.13;4990379;28;9116;-60
2022/10/16 06:03:06;;;;;;;;;;;;;;;22.70;46.83;94320.09;4987235;28;7264;-61
2022/10/16 06:05:32;;;;;;;;;;;;;;;22.69;46.42;94327.56;5006069;28;6981;-61
2022/10/16 06:08:04;;;;;;;;;;;;;;;22.69;46.52;94322.06;5068696;28;7153;-61
2022/10/16 06:10:39;;;;;;;;;;;;;;;22.69;46.44;94326.81;5055603;28;7083;-61
2022/10/16 06:13:12;;;;;;;;;;;;;;;22.69;46.47;94324.06;5051434;28;7380;-61
2022/10/16 06:15:39;;;;;;;;;;;;;;;22.68;46.80;94328.81;5051347;28;9068;-60
2022/10/16 06:18:08;;;;;;;;;;;;;;;22.67;47.11;94332.78;5068223;28;9030;-60
2022/10/16 06:20:36;;;;;;;;;;;;;;;22.68;46.50;94341.78;5085801;28;7530;-61
2022/10/16 06:23:16;;;;;;;;;;;;;;;22.69;47.13;94349.50;5053765;28;7024;-60
2022/10/16 06:26:04;;;;;;;;;;;;;;;22.67;46.82;94349.22;5065559;28;7132;-61
2022/10/16 06:28:30;;;;;;;;;;;;;;;22.67;46.63;94345.75;5057842;28;7143;-61
2022/10/16 06:31:02;;;;;;;;;;;;;;;22.66;46.70;94347.00;5056294;28;9189;-61
2022/10/16 06:33:38;;;;;;;;;;;;;;;22.66;46.83;94355.97;5051974;28;7039;-61
2022/10/16 06:36:11;;;;;;;;;;;;;;;22.67;46.54;94360.19;5053429;28;7249;-60
2022/10/16 06:38:45;;;;;;;;;;;;;;;22.64;46.57;94361.19;5051889;28;7224;-61
2022/10/16 06:41:18;;;;;;;;;;;;;;;22.65;46.64;94362.69;5048890;28;7257;-60
2022/10/16 06:43:52;;;;;;;;;;;;;;;22.66;46.46;94366.94;5058421;28;7260;-60
2022/10/16 06:46:22;;;;;;;;;;;;;;;22.65;46.61;94359.94;5060220;28;7051;-60
2022/10/16 06:48:48;;;;;;;;;;;;;;;22.65;46.83;94367.41;5060465;28;7272;-61
2022/10/16 06:51:21;;;;;;;;;;;;;;;22.67;46.62;94365.69;5069308;28;8384;-61
2022/10/16 06:53:56;;;;;;;;;;;;;;;22.66;46.60;94363.44;5068049;28;6984;-60
2022/10/16 06:56:30;;;;;;;;;;;;;;;22.64;46.66;94371.41;5053216;28;7186;-60
2022/10/16 06:58:56;;;;;;;;;;;;;;;22.65;46.62;94378.38;5076870;28;9491;-60
2022/10/16 07:01:27;;;;;;;;;;;;;;;22.65;46.70;94376.41;5087598;28;7444;-61
2022/10/16 07:03:55;;;;;;;;;;;;;;;22.65;46.91;94378.38;5073613;28;7044;-61
2022/10/16 07:06:23;;;;;;;;;;;;;;;22.66;46.71;94390.84;5067571;28;8985;-60
2022/10/16 07:08:50;;;;;;;;;;;;;;;22.66;46.66;94382.63;5055943;28;7017;-60
2022/10/16 07:11:25;;;;;;;;;;;;;;;22.65;46.38;94386.59;5051432;28;7055;-61
2022/10/16 07:13:54;;;;;;;;;;;;;;;22.65;46.93;94392.09;5038923;28;7420;-61
2022/10/16 07:16:25;;;;;;;;;;;;;;;22.65;46.81;94395.59;5069421;28;9377;-61
2022/10/16 07:18:57;;;;;;;;;;;;;;;22.66;46.46;94405.31;5086931;28;7016;-61
2022/10/16 07:21:25;;;;;;;;;;;;;;;22.67;46.44;94403.31;5054329;28;7088;-61
2022/10/16 07:23:52;;;;;;;;;;;;;;;22.65;46.46;94406.56;5059255;28;7016;-60
2022/10/16 07:26:34;;;;;;;;;;;;;;;22.67;46.54;94411.53;5063201;28;8971;-61
2022/10/16 07:29:11;;;;;;;;;;;;;;;22.67;47.28;94419.75;5052303;28;8342;-61
2022/10/16 07:31:43;;;;;;;;;;;;;;;22.66;47.00;94416.28;5067930;28;8730;-61
2022/10/16 07:34:11;;;;;;;;;;;;;;;22.66;46.62;94421.00;5071677;28;9768;-61
2022/10/16 07:36:39;;;;;;;;;;;;;;;22.65;46.95;94422.25;5087821;28;7373;-61
2022/10/16 07:39:26;;;;;;;;;;;;;;;22.66;46.70;94424.50;5053596;28;7199;-61
2022/10/16 07:41:52;;;;;;;;;;;;;;;22.65;47.11;94425.75;5047356;28;7316;-61
2022/10/16 07:44:24;;;;;;;;;;;;;;;22.66;46.77;94427.25;5053360;28;6928;-61
2022/10/16 07:47:02;;;;;;;;;;;;;;;22.67;47.09;94441.69;5071445;28;7230;-61
2022/10/16 07:49:34;;;;;;;;;;;;;;;22.66;46.77;94440.97;5082762;28;8515;-61
2022/10/16 07:52:02;;;;;;;;;;;;;;;22.68;47.03;94443.97;5084952;28;7252;-61
2022/10/16 07:54:28;;;;;;;;;;;;;;;22.68;47.26;94441.22;5053516;28;7246;-61
2022/10/16 07:56:54;;;;;;;;;;;;;;;22.68;46.81;94449.44;5047548;28;7033;-61
2022/10/16 07:59:21;;;;;;;;;;;;;;;22.66;46.94;94451.94;5061380;28;9217;-61
2022/10/16 08:01:49;;;;;;;;;;;;;;;22.69;47.01;94459.16;5072531;28;8992;-61
2022/10/16 08:04:17;;;;;;;;;;;;;;;22.71;46.29;94469.63;5064392;28;7412;-61
2022/10/16 08:06:43;;;;;;;;;;;;;;;22.74;46.63;94471.41;5047384;28;6982;-61
2022/10/16 08:09:22;;;;;;;;;;;;;;;22.74;47.12;94477.63;5069867;28;7878;-61
2022/10/16 08:11:49;;;;;;;;;;;;;;;22.74;46.62;94479.63;5065080;28;7215;-61
2022/10/16 08:14:17;;;;;;;;;;;;;;;22.75;46.72;94470.16;5063861;28;8924;-60
2022/10/16 08:16:43;;;;;;;;;;;;;;;22.74;46.75;94474.13;5055807;28;7117;-61
2022/10/16 08:19:16;;;;;;;;;;;;;;;22.73;46.63;94473.38;5064009;28;7145;-61
2022/10/16 08:22:00;;;;;;;;;;;;;;;22.74;46.32;94477.63;5082063;28;7278;-61
2022/10/16 08:24:27;;;;;;;;;;;;;;;22.75;46.47;94478.41;5045606;28;7228;-60
2022/10/16 08:26:58;;;;;;;;;;;;;;;22.74;46.76;94485.09;5080496;28;9380;-61
2022/10/16 08:29:28;;;;;;;;;;;;;;;22.73;46.06;94487.09;5055221;28;8551;-61
2022/10/16 08:31:54;;;;;;;;;;;;;;;22.76;46.40;94493.59;5063805;28;7201;-61
2022/10/16 08:34:31;;;;;;;;;;;;;;;22.77;46.65;94501.31;5055671;28;7470;-61
2022/10/16 08:37:03;;;;;;;;;;;;;;;22.78;46.39;94499.34;5047741;28;7081;-61
2022/10/16 08:39:30;;;;;;;;;;;;;;;22.75;46.62;94489.38;5057085;28;7284;-61
2022/10/16 08:42:34;;;;;;;;;;;;;;;22.76;46.97;94496.34;5061018;28;6863;-61
2022/10/16 08:45:49;;;;;;;;;;;;;;;22.75;46.61;94503.81;5057033;28;9170;-61
2022/10/16 08:48:55;;;;;;;;;;;;;;;22.73;46.47;94500.81;5070783;28;7304;-61
2022/10/16 08:51:31;;;;;;;;;;;;;;;22.75;46.08;94506.53;5080820;28;7654;-61
2022/10/16 08:54:16;;;;;;;;;;;;;;;22.75;47.07;94503.81;5058732;28;7472;-61
2022/10/16 08:56:42;;;;;;;;;;;;;;;22.76;46.56;94512.78;5056687;28;9276;-60
2022/10/16 08:59:13;;;;;;;;;;;;;;;22.75;46.81;94509.28;5047450;28;7750;-61
2022/10/16 09:02:01;;;;;;;;;;;;;;;22.76;46.99;94507.31;5063905;28;8842;-61
2022/10/16 09:04:45;;;;;;;;;;;;;;;22.75;46.48;94501.06;5088261;28;7191;-61
2022/10/16 09:07:42;;;;;;;;;;;;;;;22.78;46.44;94502.06;5080800;28;9084;-61
2022/10/16 09:10:32;;;;;;;;;;;;;;;22.78;46.30;94508.31;5071045;28;7246;-61
2022/10/16 09:13:26;;;;;;;;;;;;;;;22.76;47.12;94504.56;5068204;28;9131;-61
2022/10/16 09:16:15;;;;;;;;;;;;;;;22.76;46.61;94512.78;5074621;28;7236;-61
2022/10/16 09:18:58;;;;;;;;;;;;;;;22.75;46.55;94514.78;5065522;28;9072;-61
2022/10/16 09:21:26;;;;;;;;;;;;;;;22.76;46.50;94507.31;5054918;28;7661;-60
2022/10/16 09:24:01;;;;;;;;;;;;;;;22.71;46.50;94508.75;5067465;28;9015;-61
2022/10/16 09:26:53;;;;;;;;;;;;;;;22.71;46.66;94513.50;5069117;28;7370;-61
2022/10/16 09:29:24;;;;;;;;;;;;;;;22.71;46.68;94525.22;5003348;28;7463;-59
2022/10/16 09:31:54;;;;;;;;;;;;;;;22.69;47.10;94518.72;5006198;28;7216;-61
2022/10/16 09:34:53;;;;;;;;;;;;;;;22.67;46.96;94519.22;5004944;28;9011;-60
2022/10/16 09:37:24;;;;;;;;;;;;;;;22.65;47.14;94516.22;5006113;28;7375;-60
2022/10/16 09:39:52;;;;;;;;;;;;;;;22.65;46.89;94520.94;5018264;28;7114;-60
2022/10/16 09:42:27;;;;;;;;;;;;;;;22.65;46.29;94526.41;5017221;28;7066;-61
2022/10/16 09:44:54;;;;;;;;;;;;;;;22.65;46.85;94515.44;5014096;28;6955;-61
2022/10/16 09:47:37;;;;;;;;;;;;;;;22.67;46.60;94516.47;5010467;28;7715;-61
2022/10/16 09:50:28;;;;;;;;;;;;;;;22.67;46.74;94518.44;5012484;28;7464;-61
2022/10/16 09:53:12;;;;;;;;;;;;;;;22.67;47.28;94521.94;5023936;28;7016;-61
2022/10/16 09:55:52;;;;;;;;;;;;;;;22.68;47.12;94514.47;5025634;28;7273;-61
2022/10/16 09:58:30;;;;;;;;;;;;;;;22.68;46.78;94515.25;5009770;28;7246;-61
2022/10/16 10:00:56;;;;;;;;;;;;;;;22.68;46.77;94517.97;5000238;28;7246;-61
2022/10/16 10:03:39;;;;;;;;;;;;;;;22.70;47.16;94523.72;4999752;28;7099;-61
2022/10/16 10:06:24;;;;;;;;;;;;;;;22.70;47.03;94525.72;5017434;28;8986;-60
2022/10/16 10:09:00;;;;;;;;;;;;;;;22.69;46.92;94533.19;5078741;28;7392;-61
2022/10/16 10:12:01;;;;;;;;;;;;;;;22.71;47.00;94529.94;5071375;28;9712;-61
2022/10/16 10:15:00;;;;;;;;;;;;;;;22.71;47.18;94527.19;4969903;28;9079;-60
2022/10/16 10:17:28;;;;;;;;;;;;;;;22.69;47.04;94519.47;4939724;28;7393;-59
2022/10/16 10:20:00;;;;;;;;;;;;;;;22.70;46.85;94526.47;4941377;28;7278;-60
2022/10/16 10:22:39;;;;;;;;;;;;;;;22.70;46.99;94521.00;4927545;28;7400;-60
2022/10/16 10:25:12;;;;;;;;;;;;;;;22.71;47.43;94514.25;4954285;28;8768;-60
2022/10/16 10:27:43;;;;;;;;;;;;;;;22.71;46.41;94513.50;4957425;28;7311;-61
2022/10/16 10:30:59;;;;;;;;;;;;;;;22.75;46.91;94514.03;4947405;28;7385;-61
2022/10/16 10:33:55;;;;;;;;;;;;;;;22.73;47.20;94517.25;4953902;28;9135;-60
2022/10/16 10:36:39;;;;;;;;;;;;;;;22.75;46.62;94514.03;4946302;28;10494;-61
2022/10/16 10:39:26;;;;;;;;;;;;;;;22.73;47.22;94520.00;4943898;28;7010;-60
2022/10/16 10:42:30;;;;;;;;;;;;;;;22.76;46.81;94512.78;4940274;28;7223;-61
2022/10/16 10:45:27;;;;;;;;;;;;;;;22.77;46.72;94512.28;4947968;28;9523;-61
2022/10/16 10:48:10;;;;;;;;;;;;;;;22.77;46.77;94512.28;4932609;28;9075;-60
2022/10/16 10:50:48;;;;;;;;;;;;;;;22.76;46.98;94504.56;4968662;28;9483;-61
2022/10/16 10:53:57;;;;;;;;;;;;;;;22.78;46.73;94502.06;5035372;28;8912;-61
2022/10/16 10:56:38;;;;;;;;;;;;;;;22.78;47.52;94502.84;5067927;28;7264;-61
2022/10/16 10:59:19;;;;;;;;;;;;;;;22.77;47.05;94504.06;5053280;28;9062;-61
2022/10/16 11:02:04;;;;;;;;;;;;;;;22.78;46.81;94502.06;5035734;28;7146;-61
2022/10/16 11:05:15;;;;;;;;;;;;;;;22.81;46.88;94501.13;5057922;28;7566;-61
2022/10/16 11:08:09;;;;;;;;;;;;;;;22.81;47.03;94490.13;5034874;28;9379;-61
2022/10/16 11:10:49;;;;;;;;;;;;;;;22.82;47.36;94492.38;5044203;28;9241;-61
2022/10/16 11:14:07;;;;;;;;;;;;;;;22.82;46.79;94492.38;5042374;28;7039;-60
2022/10/16 11:16:39;;;;;;;;;;;;;;;22.81;47.05;94496.38;4986642;28;6992;-60
2022/10/16 11:19:25;;;;;;;;;;;;;;;22.83;46.92;94488.41;4986529;28;7546;-61
2022/10/16 11:22:16;;;;;;;;;;;;;;;22.85;47.32;94494.16;4990657;28;9071;-60
2022/10/16 11:24:50;;;;;;;;;;;;;;;22.85;46.95;94496.91;4974097;28;7262;-61
2022/10/16 11:27:27;;;;;;;;;;;;;;;22.85;46.64;94491.41;4975203;28;6925;-61
2022/10/16 11:30:01;;;;;;;;;;;;;;;22.88;46.53;94484.22;4973853;28;8369;-60
2022/10/16 11:32:38;;;;;;;;;;;;;;;22.87;46.95;94483.44;4971666;28;9334;-61
2022/10/16 11:35:47;;;;;;;;;;;;;;;22.90;47.13;94479.72;4985213;28;7418;-61
2022/10/16 11:38:36;;;;;;;;;;;;;;;22.90;47.12;94476.97;4964245;28;7335;-61
2022/10/16 11:41:26;;;;;;;;;;;;;;;22.91;47.39;94473.00;4970805;28;8632;-60
2022/10/16 11:44:19;;;;;;;;;;;;;;;22.92;47.03;94471.72;4914071;29;7255;-61
2022/10/16 11:47:04;;;;;;;;;;;;;;;22.92;47.19;94469.00;4931719;29;7423;-61
2022/10/16 11:49:37;;;;;;;;;;;;;;;22.92;47.16;94463.50;4948110;28;7254;-60
2022/10/16 11:52:31;;;;;;;;;;;;;;;22.97;46.76;94465.53;4914958;29;7315;-61
2022/10/16 11:55:20;;;;;;;;;;;;;;;22.98;47.26;94467.06;4944589;28;7164;-61
2022/10/16 11:58:02;;;;;;;;;;;;;;;23.00;47.22;94470.06;4919284;29;7223;-61
2022/10/16 12:00:53;;;;;;;;;;;;;;;23.01;46.93;94477.03;4924115;28;7278;-61
2022/10/16 12:03:53;;;;;;;;;;;;;;;23.02;47.01;94456.59;4928249;28;9357;-61
2022/10/16 12:06:30;;;;;;;;;;;;;;;23.05;47.15;94463.09;4933003;29;7881;-61
2022/10/16 12:09:28;;;;;;;;;;;;;;;23.07;46.97;94469.59;4919160;29;6996;-61
2022/10/16 12:12:03;;;;;;;;;;;;;;;23.10;47.06;94465.84;4919682;29;7381;-61
2022/10/16 12:14:40;;;;;;;;;;;;;;;23.11;47.11;94463.88;4925585;29;9309;-61
2022/10/16 12:17:23;;;;;;;;;;;;;;;23.12;47.28;94468.84;4934452;29;9874;-61
2022/10/16 12:20:20;;;;;;;;;;;;;;;23.15;47.35;94456.91;4911045;28;8927;-61
2022/10/16 12:23:19;;;;;;;;;;;;;;;23.17;46.93;94457.16;4915613;29;9119;-60
2022/10/16 12:25:55;;;;;;;;;;;;;;;23.19;47.04;94460.16;4935365;29;7022;-60
2022/10/16 12:28:33;;;;;;;;;;;;;;;23.21;47.08;94457.66;4934757;29;7198;-60
2022/10/16 12:31:03;;;;;;;;;;;;;;;23.22;47.22;94453.69;4923413;29;7269;-61
2022/10/16 12:33:36;;;;;;;;;;;;;;;23.24;47.10;94450.44;4934169;29;7135;-59
2022/10/16 12:36:39;;;;;;;;;;;;;;;23.29;47.05;94448.97;4918571;29;7521;-61
2022/10/16 12:39:24;;;;;;;;;;;;;;;23.29;47.73;94444.22;4870897;29;8845;-60
2022/10/16 12:45:30;;;;;;;;;;;;;;;23.31;47.05;94441.00;4869196;29;7224;-61
2022/10/16 12:48:22;;;;;;;;;;;;;;;23.33;47.18;94444.78;4851163;29;8964;-60
2022/10/16 12:50:48;;;;;;;;;;;;;;;23.36;47.28;94437.53;4894382;29;9068;-59
2022/10/16 12:53:26;;;;;;;;;;;;;;;23.37;47.18;94441.78;4875632;29;7236;-58
2022/10/16 12:56:12;;;;;;;;;;;;;;;23.40;47.33;94447.03;4862214;29;7201;-59
2022/10/16 12:59:15;;;;;;;;;;;;;;;23.43;47.07;94443.28;4898998;28;8737;-59
2022/10/16 13:02:23;;;;;;;;;;;;;;;23.46;47.11;94452.53;4954054;28;7437;-59
2022/10/16 13:05:10;;;;;;;;;;;;;;;23.46;47.03;94444.31;4973345;28;7487;-58
2022/10/16 13:07:36;;;;;;;;;;;;;;;23.47;47.02;94457.53;4973400;28;7310;-59
2022/10/16 13:10:47;;;;;;;;;;;;;;;23.50;46.97;94453.03;4989007;28;7244;-59
2022/10/16 13:13:54;;;;;;;;;;;;;;;23.52;47.49;94453.28;4967960;28;7236;-59
2022/10/16 13:16:38;;;;;;;;;;;;;;;23.53;47.16;94449.31;5003513;28;7283;-59
2022/10/16 13:19:41;;;;;;;;;;;;;;;23.58;46.96;94456.78;5011444;28;6985;-58
2022/10/16 13:22:35;;;;;;;;;;;;;;;23.61;46.96;94456.56;5020230;28;10747;-59
2022/10/16 13:25:15;;;;;;;;;;;;;;;23.63;47.05;94456.06;5068324;28;7005;-59
2022/10/16 13:28:33;;;;;;;;;;;;;;;23.65;46.78;94457.06;5067934;28;7241;-58
2022/10/16 13:31:02;;;;;;;;;;;;;;;23.68;47.03;94452.59;4992203;28;7374;-58
2022/10/16 13:33:58;;;;;;;;;;;;;;;23.73;46.71;94451.84;4992162;28;7019;-58
2022/10/16 13:36:42;;;;;;;;;;;;;;;23.76;46.86;94445.34;4988180;28;9705;-59
2022/10/16 13:39:29;;;;;;;;;;;;;;;23.81;46.98;94453.63;4987411;28;8946;-58
2022/10/16 13:42:27;;;;;;;;;;;;;;;23.84;46.59;94457.34;4983394;28;7301;-58
2022/10/16 13:44:55;;;;;;;;;;;;;;;23.87;46.79;94459.13;4984664;28;7324;-59
2022/10/16 13:47:29;;;;;;;;;;;;;;;23.88;46.71;94450.38;4991633;28;7155;-59
2022/10/16 13:50:00;;;;;;;;;;;;;;;23.93;46.41;94455.13;4975225;28;7111;-59
2022/10/16 13:52:28;;;;;;;;;;;;;;;23.95;46.48;94458.13;4974897;28;8769;-58
2022/10/16 13:54:58;;;;;;;;;;;;;;;23.98;46.05;94456.38;4974461;28;7280;-58
2022/10/16 13:57:24;;;;;;;;;;;;;;;24.02;46.73;94472.59;4990730;28;6989;-59